createdAt,value
2018-08-20T00:01:51.094Z,4.40
2018-08-20T00:04:20.531Z,3.90
2018-08-20T00:06:57.984Z,3.90
2018-08-20T00:09:40.440Z,4.67
2018-08-20T00:12:10.799Z,4.00
2018-08-20T00:14:40.185Z,4.33
2018-08-20T00:17:09.564Z,4.65
2018-08-20T00:19:41.269Z,4.30
2018-08-20T00:22:11.273Z,4.80
2018-08-20T00:24:40.764Z,4.40
2018-08-20T00:27:10.209Z,4.58
2018-08-20T00:29:41.054Z,4.47
2018-08-20T00:32:10.977Z,4.05
2018-08-20T00:34:42.417Z,4.17
2018-08-20T00:37:11.942Z,3.60
2018-08-20T00:39:41.251Z,3.40
2018-08-20T00:42:10.581Z,3.80
2018-08-20T00:44:39.975Z,3.75
2018-08-20T00:47:09.322Z,4.22
2018-08-20T00:49:38.741Z,3.50
2018-08-20T00:52:08.359Z,4.12
2018-08-20T00:54:37.971Z,3.67
2018-08-20T00:57:07.483Z,4.67
2018-08-20T00:59:36.917Z,5.00
2018-08-20T01:02:06.393Z,4.40
2018-08-20T01:04:35.723Z,4.12
2018-08-20T01:07:05.160Z,4.28
2018-08-20T01:09:34.526Z,4.50
2018-08-20T01:12:03.962Z,5.17
2018-08-20T01:14:33.398Z,4.35
2018-08-20T01:17:02.798Z,4.42
2018-08-20T01:19:32.231Z,4.35
2018-08-20T01:22:01.731Z,4.58
2018-08-20T01:24:31.166Z,5.35
2018-08-20T01:27:00.732Z,4.17
2018-08-20T01:29:30.169Z,5.15
2018-08-20T01:31:59.502Z,4.80
2018-08-20T01:34:28.944Z,4.58
2018-08-20T01:36:58.373Z,4.97
2018-08-20T01:39:27.853Z,4.53
2018-08-20T01:41:57.305Z,4.67
2018-08-20T01:44:26.652Z,4.17
2018-08-20T01:46:56.120Z,4.53
2018-08-20T01:49:25.514Z,4.72
2018-08-20T01:51:54.960Z,5.00
2018-08-20T01:54:24.417Z,5.05
2018-08-20T01:56:53.864Z,4.95
2018-08-20T01:59:23.277Z,3.72
2018-08-20T02:01:52.754Z,4.33
2018-08-20T02:04:22.510Z,5.12
2018-08-20T02:06:52.006Z,4.50
2018-08-20T02:09:21.736Z,4.85
2018-08-20T02:11:51.213Z,4.67
2018-08-20T02:14:20.600Z,4.55
2018-08-20T02:16:50.129Z,5.05
2018-08-20T02:19:19.564Z,4.35
2018-08-20T02:21:48.942Z,4.67
2018-08-20T02:24:18.333Z,4.62
2018-08-20T02:26:47.793Z,5.42
2018-08-20T02:29:17.190Z,5.05
2018-08-20T02:31:46.674Z,4.10
2018-08-20T02:34:16.202Z,4.28
2018-08-20T02:36:45.574Z,4.50
2018-08-20T02:39:15.200Z,4.42
2018-08-20T02:41:44.549Z,4.25
2018-08-20T02:44:13.956Z,4.80
2018-08-20T02:46:49.950Z,4.33
2018-08-20T02:49:19.696Z,4.45
2018-08-20T02:51:49.820Z,4.40
2018-08-20T02:54:19.326Z,4.08
2018-08-20T02:56:48.660Z,3.95
2018-08-20T02:59:18.043Z,4.67
2018-08-20T03:01:47.523Z,4.50
2018-08-20T03:04:16.862Z,4.50
2018-08-20T03:06:46.235Z,4.90
2018-08-20T03:09:16.523Z,4.37
2018-08-20T03:11:46.070Z,4.53
2018-08-20T03:14:15.532Z,4.92
2018-08-20T03:16:44.992Z,4.42
2018-08-20T03:19:14.347Z,4.30
2018-08-20T03:21:44.834Z,5.33
2018-08-20T03:24:14.238Z,4.30
2018-08-20T03:26:43.587Z,4.22
2018-08-20T03:29:13.168Z,4.12
2018-08-20T03:31:42.609Z,4.05
2018-08-20T03:34:12.028Z,4.87
2018-08-20T03:36:41.466Z,4.60
2018-08-20T03:39:11.001Z,4.75
2018-08-20T03:41:40.519Z,4.40
2018-08-20T03:44:10.073Z,4.47
2018-08-20T03:46:39.525Z,4.70
2018-08-20T03:49:09.141Z,5.47
2018-08-20T03:51:38.560Z,5.22
2018-08-20T03:54:07.951Z,4.33
2018-08-20T03:56:37.435Z,4.67
2018-08-20T03:59:07.229Z,4.17
2018-08-20T04:01:36.611Z,4.45
2018-08-20T04:04:06.109Z,4.75
2018-08-20T04:06:35.461Z,4.53
2018-08-20T04:09:06.341Z,4.33
2018-08-20T04:11:35.765Z,4.60
2018-08-20T04:14:05.187Z,4.87
2018-08-20T04:16:34.528Z,5.17
2018-08-20T04:19:07.121Z,4.33
2018-08-20T04:21:37.275Z,4.90
2018-08-20T04:24:06.647Z,4.20
2018-08-20T04:26:36.058Z,4.67
2018-08-20T04:29:05.694Z,4.42
2018-08-20T04:31:35.064Z,4.00
2018-08-20T04:34:04.429Z,4.28
2018-08-20T04:36:34.020Z,5.00
2018-08-20T04:39:03.445Z,4.87
2018-08-20T04:41:32.755Z,4.35
2018-08-20T04:44:02.253Z,4.90
2018-08-20T04:46:31.894Z,5.22
2018-08-20T04:49:01.539Z,4.67
2018-08-20T04:51:31.050Z,4.87
2018-08-20T04:54:00.243Z,4.78
2018-08-20T04:56:29.664Z,5.17
2018-08-20T04:58:59.082Z,4.67
2018-08-20T05:01:28.520Z,4.87
2018-08-20T05:03:59.004Z,5.05
2018-08-20T05:06:28.333Z,4.65
2018-08-20T05:08:57.713Z,5.25
2018-08-20T05:11:27.156Z,5.55
2018-08-20T05:13:56.619Z,5.35
2018-08-20T05:16:26.103Z,5.28
2018-08-20T05:18:55.700Z,5.75
2018-08-20T05:21:24.981Z,4.62
2018-08-20T05:23:54.462Z,5.22
2018-08-20T05:26:23.990Z,5.58
2018-08-20T05:28:53.476Z,5.70
2018-08-20T05:31:22.851Z,6.35
2018-08-20T05:33:52.413Z,6.58
2018-08-20T05:36:21.789Z,5.30
2018-08-20T05:38:51.254Z,5.30
2018-08-20T05:41:20.708Z,5.80
2018-08-20T05:43:50.126Z,5.47
2018-08-20T05:46:19.588Z,5.47
2018-08-20T05:48:49.032Z,4.90
2018-08-20T05:51:18.561Z,5.22
2018-08-20T05:53:48.053Z,4.92
2018-08-20T05:56:17.570Z,5.08
2018-08-20T05:58:47.053Z,5.12
2018-08-20T06:01:16.609Z,5.78
2018-08-20T06:03:46.192Z,6.72
2018-08-20T06:06:15.663Z,7.45
2018-08-20T06:08:45.317Z,6.05
2018-08-20T06:11:14.946Z,5.80
2018-08-20T06:13:44.309Z,5.45
2018-08-20T06:16:13.673Z,5.60
2018-08-20T06:18:43.068Z,5.58
2018-08-20T06:21:12.438Z,4.90
2018-08-20T06:23:41.949Z,4.58
2018-08-20T06:26:11.584Z,4.00
2018-08-20T06:28:41.105Z,3.90
2018-08-20T06:31:10.465Z,4.08
2018-08-20T06:33:40.099Z,3.50
2018-08-20T06:36:09.633Z,4.12
2018-08-20T06:38:38.946Z,3.62
2018-08-20T06:41:08.397Z,3.30
2018-08-20T06:43:37.807Z,3.65
2018-08-20T06:46:07.367Z,3.45
2018-08-20T06:48:36.895Z,3.17
2018-08-20T06:51:06.558Z,3.40
2018-08-20T06:53:36.090Z,3.65
2018-08-20T06:56:05.573Z,4.50
2018-08-20T06:58:35.145Z,3.50
2018-08-20T07:01:04.576Z,3.85
2018-08-20T07:03:34.093Z,3.92
2018-08-20T07:06:03.471Z,4.60
2018-08-20T07:08:32.950Z,4.10
2018-08-20T07:11:02.272Z,4.35
2018-08-20T07:13:35.485Z,4.17
2018-08-20T07:16:05.948Z,4.08
2018-08-20T07:18:35.466Z,4.72
2018-08-20T07:21:04.903Z,5.50
2018-08-20T07:23:34.426Z,4.37
2018-08-20T07:26:04.001Z,4.42
2018-08-20T07:28:33.460Z,4.08
2018-08-20T07:31:02.855Z,5.80
2018-08-20T07:33:32.202Z,3.98
2018-08-20T07:36:01.574Z,3.75
2018-08-20T07:38:30.964Z,4.35
2018-08-20T07:41:00.345Z,5.08
2018-08-20T07:43:29.721Z,4.92
2018-08-20T07:45:59.090Z,6.12
2018-08-20T07:48:28.480Z,4.25
2018-08-20T07:50:57.994Z,7.05
2018-08-20T07:53:27.344Z,6.37
2018-08-20T07:55:56.725Z,4.62
2018-08-20T07:58:26.157Z,3.95
2018-08-20T08:00:55.517Z,4.97
2018-08-20T08:03:29.044Z,4.03
2018-08-20T08:06:00.689Z,5.05
2018-08-20T08:08:30.115Z,4.55
2018-08-20T08:10:59.550Z,5.47
2018-08-20T08:13:28.969Z,4.75
2018-08-20T08:15:58.301Z,5.83
2018-08-20T08:18:27.663Z,5.47
2018-08-20T08:20:57.108Z,8.25
2018-08-20T08:23:26.490Z,6.30
2018-08-20T08:25:55.853Z,5.95
2018-08-20T08:28:25.283Z,8.63
2018-08-20T08:30:54.666Z,7.05
2018-08-20T08:33:24.087Z,7.70
2018-08-20T08:35:53.503Z,7.25
2018-08-20T08:38:22.881Z,6.65
2018-08-20T08:40:52.229Z,7.75
2018-08-20T08:43:21.619Z,7.37
2018-08-20T08:45:50.968Z,7.12
2018-08-20T08:48:20.343Z,6.92
2018-08-20T08:50:49.718Z,7.28
2018-08-20T08:53:19.095Z,8.25
2018-08-20T08:55:48.567Z,8.40
2018-08-20T08:58:17.951Z,6.58
2018-08-20T09:00:47.309Z,7.72
2018-08-20T09:03:16.661Z,6.60
2018-08-20T09:05:46.117Z,6.85
2018-08-20T09:08:15.604Z,7.90
2018-08-20T09:10:45.002Z,6.12
2018-08-20T09:13:14.396Z,7.42
2018-08-20T09:15:43.784Z,7.30
2018-08-20T09:18:13.204Z,6.58
2018-08-20T09:20:42.585Z,6.97
2018-08-20T09:23:11.909Z,7.45
2018-08-20T09:25:41.355Z,7.55
2018-08-20T09:28:10.738Z,7.92
2018-08-20T09:30:40.101Z,6.42
2018-08-20T09:33:09.635Z,6.60
2018-08-20T09:35:39.034Z,6.92
2018-08-20T09:38:08.477Z,7.15
2018-08-20T09:40:37.841Z,6.35
2018-08-20T09:43:07.204Z,7.72
2018-08-20T09:45:36.533Z,5.80
2018-08-20T09:48:05.927Z,6.87
2018-08-20T09:50:35.300Z,6.95
2018-08-20T09:53:04.677Z,6.03
2018-08-20T09:55:34.071Z,6.65
2018-08-20T09:58:03.432Z,5.33
2018-08-20T10:00:37.998Z,5.67
2018-08-20T10:03:07.636Z,6.20
2018-08-20T10:05:37.119Z,6.35
2018-08-20T10:08:07.413Z,7.90
2018-08-20T10:10:36.835Z,6.80
2018-08-20T10:13:06.357Z,6.28
2018-08-20T10:15:35.777Z,5.75
2018-08-20T10:18:05.201Z,5.28
2018-08-20T10:20:34.640Z,6.25
2018-08-20T10:23:04.040Z,5.95
2018-08-20T10:25:33.387Z,5.05
2018-08-20T10:28:02.753Z,5.17
2018-08-20T10:30:32.110Z,5.10
2018-08-20T10:33:01.478Z,5.22
2018-08-20T10:35:30.781Z,5.17
2018-08-20T10:38:00.333Z,5.22
2018-08-20T10:40:29.585Z,5.08
2018-08-20T10:42:58.942Z,5.25
2018-08-20T10:45:33.668Z,8.75
2018-08-20T10:48:02.990Z,5.75
2018-08-20T10:50:32.345Z,6.10
2018-08-20T10:53:01.706Z,5.72
2018-08-20T10:55:31.139Z,7.47
2018-08-20T10:58:00.546Z,6.37
2018-08-20T11:00:29.876Z,7.03
2018-08-20T11:02:59.272Z,6.53
2018-08-20T11:05:28.676Z,6.37
2018-08-20T11:07:58.049Z,7.75
2018-08-20T11:10:27.393Z,6.25
2018-08-20T11:12:56.840Z,7.28
2018-08-20T11:15:26.252Z,6.55
2018-08-20T11:17:55.576Z,9.48
2018-08-20T11:20:24.947Z,7.28
2018-08-20T11:22:54.496Z,6.03
2018-08-20T11:25:24.046Z,6.62
2018-08-20T11:27:53.408Z,5.85
2018-08-20T11:30:22.886Z,6.53
2018-08-20T11:32:52.341Z,6.78
2018-08-20T11:35:21.830Z,7.33
2018-08-20T11:37:51.144Z,5.33
2018-08-20T11:40:20.979Z,5.60
2018-08-20T11:42:50.344Z,5.53
2018-08-20T11:45:19.706Z,5.62
2018-08-20T11:47:49.054Z,5.20
2018-08-20T11:50:18.424Z,5.60
2018-08-20T11:52:47.752Z,5.35
2018-08-20T11:55:17.090Z,5.05
2018-08-20T11:57:46.446Z,5.83
2018-08-20T12:00:15.870Z,5.47
2018-08-20T12:02:45.267Z,5.47
2018-08-20T12:05:14.638Z,5.00
2018-08-20T12:07:44.074Z,5.42
2018-08-20T12:10:13.437Z,5.00
2018-08-20T12:12:42.877Z,5.17
2018-08-20T12:15:13.166Z,4.80
2018-08-20T12:17:43.202Z,6.05
2018-08-20T12:20:12.500Z,4.75
2018-08-20T12:22:41.849Z,5.00
2018-08-20T12:25:14.086Z,5.05
2018-08-20T12:27:44.316Z,5.03
2018-08-20T12:30:14.536Z,7.05
2018-08-20T12:32:43.974Z,4.95
2018-08-20T12:35:13.349Z,6.78
2018-08-20T12:37:43.038Z,5.42
2018-08-20T12:40:19.052Z,5.40
2018-08-20T12:42:48.425Z,4.42
2018-08-20T12:45:17.828Z,4.97
2018-08-20T12:47:47.167Z,5.40
2018-08-20T12:50:16.567Z,4.70
2018-08-20T12:52:45.887Z,5.62
2018-08-20T12:55:15.264Z,4.50
2018-08-20T12:57:44.703Z,4.25
2018-08-20T13:00:14.092Z,5.95
2018-08-20T13:02:43.456Z,3.90
2018-08-20T13:05:12.754Z,3.72
2018-08-20T13:07:42.075Z,4.22
2018-08-20T13:10:11.489Z,4.28
2018-08-20T13:12:40.834Z,3.90
2018-08-20T13:15:10.221Z,3.40
2018-08-20T13:17:39.653Z,3.40
2018-08-20T13:20:08.979Z,3.50
2018-08-20T13:22:38.400Z,3.90
2018-08-20T13:25:08.548Z,3.72
2018-08-20T13:27:38.151Z,4.05
2018-08-20T13:30:08.830Z,4.10
2018-08-20T13:32:38.321Z,4.17
2018-08-20T13:35:08.426Z,4.22
2018-08-20T13:37:38.035Z,3.40
2018-08-20T13:40:07.693Z,3.17
2018-08-20T13:42:37.165Z,3.60
2018-08-20T13:45:06.625Z,3.00
2018-08-20T13:47:36.028Z,2.70
2018-08-20T13:50:12.535Z,2.83
2018-08-20T13:52:43.407Z,2.80
2018-08-20T13:55:12.774Z,3.08
2018-08-20T13:57:47.408Z,3.87
2018-08-20T14:00:18.156Z,3.05
2018-08-20T14:02:47.567Z,3.45
2018-08-20T14:05:17.565Z,4.75
2018-08-20T14:07:47.494Z,3.20
2018-08-20T14:10:16.953Z,3.65
2018-08-20T14:12:46.309Z,4.33
2018-08-20T14:15:15.925Z,3.70
2018-08-20T14:17:45.403Z,9.28
2018-08-20T14:20:16.265Z,2.60
2018-08-20T14:22:46.385Z,2.90
2018-08-20T14:25:15.882Z,3.55
2018-08-20T14:27:45.217Z,3.45
2018-08-20T14:30:15.635Z,4.20
2018-08-20T14:32:45.468Z,3.50
2018-08-20T14:35:15.025Z,3.20
2018-08-20T14:37:44.510Z,3.33
2018-08-20T14:40:18.748Z,4.33
2018-08-20T14:42:48.389Z,3.25
2018-08-20T14:45:17.805Z,3.67
2018-08-20T14:47:47.202Z,4.47
2018-08-20T14:50:17.796Z,5.53
2018-08-20T14:52:47.333Z,3.02
2018-08-20T14:55:16.837Z,5.35
2018-08-20T14:57:46.272Z,3.62
2018-08-20T15:00:15.675Z,3.30
2018-08-20T15:02:45.119Z,2.92
2018-08-20T15:05:14.660Z,3.00
2018-08-20T15:07:44.197Z,4.20
2018-08-20T15:10:13.748Z,3.80
2018-08-20T15:12:43.684Z,3.25
2018-08-20T15:15:13.346Z,3.33
2018-08-20T15:17:42.704Z,3.10
2018-08-20T15:20:12.096Z,4.12
2018-08-20T15:22:41.637Z,3.17
2018-08-20T15:25:11.138Z,4.50
2018-08-20T15:27:40.539Z,4.72
2018-08-20T15:30:09.940Z,3.60
2018-08-20T15:32:39.403Z,3.80
2018-08-20T15:35:08.862Z,3.50
2018-08-20T15:37:38.237Z,3.33
2018-08-20T15:40:07.735Z,5.22
2018-08-20T15:42:37.171Z,3.80
2018-08-20T15:45:06.561Z,2.95
2018-08-20T15:47:36.059Z,8.48
2018-08-20T15:50:05.553Z,2.83
2018-08-20T15:52:35.199Z,2.98
2018-08-20T15:55:05.119Z,1.95
2018-08-20T15:57:34.625Z,2.62
2018-08-20T16:00:04.727Z,2.25
2018-08-20T16:02:34.299Z,2.50
2018-08-20T16:05:03.828Z,4.60
2018-08-20T16:07:33.643Z,1.98
2018-08-20T16:10:03.187Z,2.65
2018-08-20T16:12:32.682Z,2.58
2018-08-20T16:15:02.117Z,1.98
2018-08-20T16:17:31.581Z,2.08
2018-08-20T16:20:00.983Z,4.50
2018-08-20T16:22:30.856Z,2.20
2018-08-20T16:25:00.306Z,2.22
2018-08-20T16:27:29.908Z,1.70
2018-08-20T16:29:59.263Z,2.05
2018-08-20T16:32:28.731Z,2.62
2018-08-20T16:34:58.197Z,1.47
2018-08-20T16:37:27.713Z,3.87
2018-08-20T16:39:57.697Z,1.95
2018-08-20T16:42:27.262Z,2.58
2018-08-20T16:44:57.000Z,1.98
2018-08-20T16:47:26.514Z,1.90
2018-08-20T16:49:55.981Z,1.67
2018-08-20T16:52:25.509Z,1.30
2018-08-20T16:54:55.828Z,1.30
2018-08-20T16:57:25.200Z,1.45
2018-08-20T16:59:54.622Z,1.27
2018-08-20T17:02:28.342Z,1.32
2018-08-20T17:04:58.000Z,2.72
2018-08-20T17:07:27.487Z,1.60
2018-08-20T17:09:57.316Z,2.40
2018-08-20T17:12:26.894Z,1.30
2018-08-20T17:14:56.457Z,1.47
2018-08-20T17:17:25.751Z,1.30
2018-08-20T17:19:55.338Z,1.87
2018-08-20T17:22:24.704Z,2.37
2018-08-20T17:24:57.161Z,1.60
2018-08-20T17:27:27.252Z,1.45
2018-08-20T17:29:57.079Z,1.40
2018-08-20T17:32:26.571Z,1.55
2018-08-20T17:34:56.007Z,1.35
2018-08-20T17:37:25.352Z,2.75
2018-08-20T17:40:01.370Z,1.82
2018-08-20T17:42:31.804Z,1.62
2018-08-20T17:45:02.213Z,2.12
2018-08-20T17:47:32.585Z,1.80
2018-08-20T17:50:02.193Z,1.15
2018-08-20T17:52:35.089Z,1.12
2018-08-20T17:55:05.605Z,1.00
2018-08-20T17:57:34.982Z,1.30
2018-08-20T18:00:46.951Z,1.02
2018-08-20T18:03:23.153Z,2.55
2018-08-20T18:06:04.954Z,1.30
2018-08-20T18:08:35.002Z,1.17
2018-08-20T18:11:05.357Z,0.90
2018-08-20T18:13:46.820Z,1.47
2018-08-20T18:16:18.201Z,1.12
2018-08-20T18:18:49.872Z,1.30
2018-08-20T18:21:19.827Z,2.35
2018-08-20T18:23:49.291Z,0.90
2018-08-20T18:26:19.541Z,0.80
2018-08-20T18:28:51.885Z,0.95
2018-08-20T18:31:25.059Z,1.30
2018-08-20T18:33:54.560Z,1.70
2018-08-20T18:36:25.545Z,2.52
2018-08-20T18:38:56.864Z,1.10
2018-08-20T18:42:09.483Z,1.52
2018-08-20T18:44:39.005Z,2.37
2018-08-20T18:47:10.749Z,3.25
2018-08-20T18:49:57.921Z,1.32
2018-08-20T18:52:30.904Z,1.15
2018-08-20T18:55:00.981Z,1.30
2018-08-20T18:57:35.428Z,2.00
2018-08-20T19:00:09.864Z,2.47
2018-08-20T19:02:50.890Z,1.02
2018-08-20T19:05:20.970Z,0.93
2018-08-20T19:07:50.709Z,0.80
2018-08-20T19:10:24.144Z,0.70
2018-08-20T19:12:53.747Z,0.90
2018-08-20T19:15:45.139Z,0.60
2018-08-20T19:18:25.194Z,0.85
2018-08-20T19:20:54.582Z,0.80
2018-08-20T19:23:24.175Z,1.15
2018-08-20T19:25:53.579Z,1.42
2018-08-20T19:28:24.050Z,0.98
2018-08-20T19:30:55.468Z,0.60
2018-08-20T19:33:26.408Z,0.88
2018-08-20T19:35:56.171Z,1.00
2018-08-20T19:38:25.569Z,1.05
2018-08-20T19:41:02.710Z,0.78
2018-08-20T19:43:37.299Z,0.62
2018-08-20T19:46:06.937Z,0.80
2018-08-20T19:48:36.725Z,3.87
2018-08-20T19:51:08.641Z,0.62
2018-08-20T19:53:38.088Z,0.80
2018-08-20T19:56:13.916Z,0.65
2018-08-20T19:58:44.695Z,0.85
2018-08-20T20:01:18.113Z,0.68
2018-08-20T20:03:49.137Z,0.95
2018-08-20T20:06:18.709Z,3.72
2018-08-20T20:08:48.038Z,0.70
2018-08-20T20:11:24.243Z,0.80
2018-08-20T20:13:55.652Z,0.82
2018-08-20T20:16:25.420Z,1.37
2018-08-20T20:18:55.103Z,1.02
2018-08-20T20:21:24.533Z,1.02
2018-08-20T20:23:53.951Z,1.25
2018-08-20T20:26:23.376Z,1.85
2018-08-20T20:28:52.878Z,0.90
2018-08-20T20:31:22.267Z,2.50
2018-08-20T20:33:51.743Z,0.57
2018-08-20T20:36:28.741Z,0.93
2018-08-20T20:38:58.383Z,1.67
2018-08-20T20:41:27.965Z,0.65
2018-08-20T20:43:57.459Z,0.50
2018-08-20T20:46:27.043Z,0.72
2018-08-20T20:48:56.369Z,1.50
2018-08-20T20:51:25.838Z,0.88
2018-08-20T20:53:56.226Z,0.60
2018-08-20T20:56:25.656Z,1.65
2018-08-20T20:58:55.101Z,0.98
2018-08-20T21:01:24.518Z,1.65
2018-08-20T21:03:54.129Z,1.12
2018-08-20T21:06:23.672Z,1.05
2018-08-20T21:08:53.259Z,1.62
2018-08-20T21:11:23.259Z,0.75
2018-08-20T21:13:52.672Z,1.60
2018-08-20T21:16:24.836Z,0.80
2018-08-20T21:18:55.796Z,1.40
2018-08-20T21:21:25.937Z,1.02
2018-08-20T21:23:56.978Z,1.15
2018-08-20T21:26:26.472Z,0.75
2018-08-20T21:28:56.473Z,0.78
2018-08-20T21:31:27.215Z,1.45
2018-08-20T21:33:59.932Z,0.80
2018-08-20T21:36:30.312Z,0.65
2018-08-20T21:38:59.678Z,0.95
2018-08-20T21:41:29.776Z,3.40
2018-08-20T21:43:59.221Z,1.27
2018-08-20T21:46:28.666Z,1.05
2018-08-20T21:48:58.189Z,0.90
2018-08-20T21:51:30.047Z,2.05
2018-08-20T21:53:59.522Z,1.32
2018-08-20T21:57:02.455Z,0.72
2018-08-20T21:59:31.841Z,1.17
2018-08-20T22:02:01.290Z,0.85
2018-08-20T22:04:31.751Z,1.00
2018-08-20T22:07:01.264Z,1.22
2018-08-20T22:09:30.694Z,1.85
2018-08-20T22:12:00.100Z,0.85
2018-08-20T22:14:29.460Z,1.60
2018-08-20T22:16:58.902Z,1.00
2018-08-20T22:19:28.244Z,1.62
2018-08-20T22:21:57.742Z,0.93
2018-08-20T22:24:27.161Z,1.90
2018-08-20T22:26:58.606Z,0.80
2018-08-20T22:29:36.782Z,2.02
2018-08-20T22:32:08.373Z,1.12
2018-08-20T22:34:37.787Z,0.80
2018-08-20T22:37:08.563Z,0.80
2018-08-20T22:39:38.037Z,1.05
2018-08-20T22:42:07.760Z,0.80
2018-08-20T22:44:37.325Z,1.12
2018-08-20T22:47:06.810Z,2.83
2018-08-20T22:49:37.208Z,1.07
2018-08-20T22:52:08.234Z,1.22
2018-08-20T22:54:37.671Z,0.90
2018-08-20T22:57:07.386Z,1.02
2018-08-20T22:59:36.935Z,0.85
2018-08-20T23:02:06.528Z,0.82
2018-08-20T23:04:36.080Z,1.27
2018-08-20T23:07:10.503Z,1.45
2018-08-20T23:09:40.097Z,1.07
2018-08-20T23:12:09.551Z,1.27
2018-08-20T23:14:39.872Z,1.67
2018-08-20T23:17:09.419Z,1.27
2018-08-20T23:19:38.932Z,0.93
2018-08-20T23:22:08.477Z,1.45
2018-08-20T23:24:43.426Z,1.00
2018-08-20T23:27:12.799Z,0.80
2018-08-20T23:29:42.106Z,3.08
2018-08-20T23:32:11.591Z,0.85
2018-08-20T23:34:41.011Z,1.30
2018-08-20T23:37:10.483Z,1.07
2018-08-20T23:39:39.819Z,1.57
2018-08-20T23:42:09.453Z,1.42
2018-08-20T23:44:38.962Z,0.82
2018-08-20T23:47:08.473Z,0.82
2018-08-20T23:49:37.959Z,2.12
2018-08-20T23:52:07.501Z,1.02
2018-08-20T23:54:36.990Z,1.42
2018-08-20T23:57:06.592Z,1.95
2018-08-20T23:59:35.998Z,0.80
